Time;durP1;ratioP1;P1;durP2;ratioP2;P2;SDS_P1;SDS_P2;PMS_P1;PMS_P2;Temp;Humidity;BMP_temperature;BMP_pressure;BME280_temperature;BME280_humidity;BME280_pressure;Samples;Min_cycle;Max_cycle;Signal;HPM_P1;HPM_P2
2023/01/15 00:01:50;;;;;;;7.57;1.85;;;;;;;12.17;59.31;99779.22;6181855;23;20017;-67
2023/01/15 00:04:17;;;;;;;4.88;1.48;;;;;;;12.13;59.37;99766.19;6182366;23;20340;-67
2023/01/15 00:06:43;;;;;;;10.65;2.13;;;;;;;12.10;59.24;99761.94;6182121;23;20067;-66
2023/01/15 00:09:14;;;;;;;5.28;1.83;;;;;;;12.07;58.95;99773.00;6182192;23;20021;-67
2023/01/15 00:11:40;;;;;;;4.65;1.40;;;;;;;12.04;59.20;99771.44;6182162;23;20426;-67
2023/01/15 00:14:08;;;;;;;4.70;1.60;;;;;;;12.03;59.19;99764.38;6182218;23;20009;-67
2023/01/15 00:16:34;;;;;;;5.72;1.73;;;;;;;12.00;59.20;99774.56;6182454;23;20063;-66
2023/01/15 00:19:03;;;;;;;7.55;2.00;;;;;;;11.98;58.89;99780.09;6181588;23;20017;-66
2023/01/15 00:21:30;;;;;;;9.73;2.08;;;;;;;11.94;58.91;99776.00;6181923;23;20017;-67
2023/01/15 00:29:28;;;;;;;5.85;1.80;;;;;;;11.88;59.12;99770.31;6182155;23;20013;-67
2023/01/15 00:31:58;;;;;;;8.80;2.28;;;;;;;11.86;58.79;99788.44;6155570;23;20017;-67
2023/01/15 00:34:25;;;;;;;5.75;1.85;;;;;;;11.83;58.98;99775.28;6182008;23;20470;-66
2023/01/15 00:36:52;;;;;;;8.02;2.00;;;;;;;11.79;58.72;99766.63;6181959;23;20104;-68
2023/01/15 00:39:19;;;;;;;5.82;1.85;;;;;;;11.78;58.64;99773.00;6181519;23;20025;-67
2023/01/15 00:41:46;;;;;;;7.53;1.70;;;;;;;11.80;58.61;99773.72;6155502;23;20074;-66
2023/01/15 00:44:14;;;;;;;4.72;1.52;;;;;;;11.82;58.80;99766.34;6155678;23;20320;-67
2023/01/15 00:46:41;;;;;;;5.90;2.05;;;;;;;11.83;58.75;99765.38;6181896;23;20048;-66
2023/01/15 00:49:08;;;;;;;8.77;1.70;;;;;;;11.83;58.72;99764.50;6182047;22;20431;-68
2023/01/15 00:51:35;;;;;;;5.38;1.90;;;;;;;11.82;58.84;99776.25;6131096;23;20017;-69
2023/01/15 00:54:03;;;;;;;9.95;2.10;;;;;;;11.82;58.84;99782.50;6182025;23;20443;-67
2023/01/15 00:56:30;;;;;;;4.50;1.90;;;;;;;11.80;58.73;99781.78;6155223;22;20017;-67
2023/01/15 00:58:56;;;;;;;7.07;2.15;;;;;;;11.80;59.02;99789.84;6181628;23;20017;-67
2023/01/15 01:01:23;;;;;;;9.00;1.60;;;;;;;11.81;59.13;99788.03;6180884;23;20383;-68
2023/01/15 01:03:51;;;;;;;8.23;1.92;;;;;;;11.81;58.97;99785.31;6155442;23;20021;-67
2023/01/15 01:06:21;;;;;;;6.00;2.25;;;;;;;11.80;59.07;99789.00;6155446;23;20120;-67
2023/01/15 01:08:48;;;;;;;7.30;2.00;;;;;;;11.78;59.07;99789.16;6181900;23;20052;-67
2023/01/15 01:11:23;;;;;;;8.70;2.00;;;;;;;11.78;59.23;99791.84;6181587;23;20066;-68
2023/01/15 01:13:50;;;;;;;;;;;;;;;11.79;58.85;99798.91;6155909;23;20439;-67
2023/01/15 01:16:25;;;;;;;7.70;1.92;;;;;;;11.80;58.90;99795.25;6155558;23;19921;-67
2023/01/15 01:18:53;;;;;;;10.88;2.22;;;;;;;11.77;58.93;99795.50;6182104;23;20013;-66
2023/01/15 01:21:20;;;;;;;6.53;2.10;;;;;;;11.71;58.67;99798.75;6181845;23;20025;-67
2023/01/15 01:23:47;;;;;;;5.57;2.13;;;;;;;11.68;58.70;99793.66;6181531;23;20021;-67
2023/01/15 01:26:14;;;;;;;6.13;2.40;;;;;;;11.64;58.77;99782.34;6155482;23;20100;-67
2023/01/15 01:28:42;;;;;;;7.03;1.85;;;;;;;11.63;58.74;99791.38;6182117;23;20014;-68
2023/01/15 01:31:08;;;;;;;4.78;1.65;;;;;;;11.62;58.54;99787.00;6181947;23;20013;-68
2023/01/15 01:33:35;;;;;;;7.30;1.50;;;;;;;11.63;58.51;99795.91;6155253;23;20017;-67
2023/01/15 01:36:02;;;;;;;7.95;2.38;;;;;;;11.64;58.59;99790.41;6182690;23;20017;-68
2023/01/15 01:38:29;;;;;;;5.97;1.50;;;;;;;11.62;58.38;99783.47;6181693;23;20041;-67
2023/01/15 01:40:55;;;;;;;8.13;1.80;;;;;;;11.61;58.57;99781.75;6181577;23;20017;-67
2023/01/15 01:43:28;;;;;;;6.32;2.00;;;;;;;11.58;58.36;99779.34;6130878;23;20021;-67
2023/01/15 01:45:55;;;;;;;5.53;2.25;;;;;;;11.54;58.32;99786.00;6155473;23;20052;-68
2023/01/15 01:48:30;;;;;;;8.27;2.40;;;;;;;11.49;58.39;99790.97;6155437;23;20028;-67
2023/01/15 01:51:00;;;;;;;8.55;2.15;;;;;;;11.47;58.18;99783.03;6180340;23;20351;-67
2023/01/15 01:53:29;;;;;;;6.38;1.92;;;;;;;11.44;58.28;99786.84;6155502;23;20455;-67
2023/01/15 01:55:57;;;;;;;6.82;2.03;;;;;;;11.41;58.09;99792.50;6155216;22;20382;-67
2023/01/15 01:58:28;;;;;;;9.63;2.10;;;;;;;11.39;58.16;99789.13;6155358;23;20048;-67
2023/01/15 02:00:55;;;;;;;8.23;2.00;;;;;;;11.41;58.35;99783.59;6154831;23;20466;-68
2023/01/15 02:03:29;;;;;;;6.20;1.98;;;;;;;11.40;58.12;99790.81;6181467;23;20031;-67
2023/01/15 02:05:59;;;;;;;7.90;2.03;;;;;;;11.39;58.36;99782.88;6181556;23;20401;-67
2023/01/15 02:08:27;;;;;;;6.35;1.85;;;;;;;11.38;58.00;99783.88;6181654;23;20024;-67
2023/01/15 02:10:55;;;;;;;6.10;2.10;;;;;;;11.36;58.12;99788.53;6181626;23;20021;-67
2023/01/15 02:13:34;;;;;;;7.22;2.15;;;;;;;11.36;58.11;99785.84;6181593;23;20017;-68
2023/01/15 02:16:20;;;;;;;9.20;1.80;;;;;;;11.34;58.10;99787.84;6155042;23;20017;-66
2023/01/15 02:19:28;;;;;;;10.98;3.38;;;;;;;11.34;57.91;99790.53;6181800;23;20021;-67
2023/01/15 02:22:20;;;;;;;5.50;2.05;;;;;;;11.33;58.08;99796.88;6154648;23;20040;-67
2023/01/15 02:24:58;;;;;;;8.95;1.80;;;;;;;11.30;57.91;99787.25;6155274;23;20451;-67
2023/01/15 02:27:27;;;;;;;6.45;2.28;;;;;;;11.28;57.93;99788.41;6154975;23;20017;-68
2023/01/15 02:30:06;;;;;;;7.25;1.83;;;;;;;11.27;58.16;99781.31;6155048;23;20021;-67
2023/01/15 02:32:47;;;;;;;7.57;1.80;;;;;;;11.27;57.91;99778.63;6154590;23;20017;-68
2023/01/15 02:35:26;;;;;;;8.40;2.03;;;;;;;11.24;58.09;99782.44;6155348;23;20017;-67
2023/01/15 02:37:58;;;;;;;6.78;1.88;;;;;;;11.22;57.89;99783.56;6154981;23;20463;-67
2023/01/15 02:40:27;;;;;;;9.20;2.05;;;;;;;11.20;57.94;99791.78;6154935;23;20508;-70
2023/01/15 02:42:56;;;;;;;8.05;1.75;;;;;;;11.20;57.75;99785.56;6180985;23;20088;-67
2023/01/15 02:45:29;;;;;;;6.25;1.77;;;;;;;11.18;57.87;99777.63;6155051;23;20351;-67
2023/01/15 02:48:07;;;;;;;7.40;1.83;;;;;;;11.20;57.77;99767.59;6131382;22;20017;-67
2023/01/15 02:50:38;;;;;;;5.93;2.13;;;;;;;11.18;57.86;99771.41;6154525;23;20013;-68
2023/01/15 02:53:10;;;;;;;9.75;2.55;;;;;;;11.16;57.59;99774.22;6153589;23;20115;-67
2023/01/15 02:55:42;;;;;;;11.70;2.95;;;;;;;11.18;57.61;99776.78;6155037;22;20359;-66
2023/01/15 02:58:19;;;;;;;6.15;1.73;;;;;;;11.17;57.87;99751.75;6154830;23;20021;-66
2023/01/15 03:00:50;;;;;;;6.78;1.77;;;;;;;11.14;57.71;99758.22;6154530;22;20025;-67
2023/01/15 03:03:22;;;;;;;5.75;2.38;;;;;;;11.09;57.82;99760.47;6182663;23;20128;-66
2023/01/15 03:06:12;;;;;;;6.75;1.95;;;;;;;11.07;57.79;99756.22;6164118;23;20013;-67
2023/01/15 03:08:39;;;;;;;8.73;1.98;;;;;;;11.05;57.76;99756.34;6182488;23;20092;-66
2023/01/15 03:11:10;;;;;;;6.88;2.08;;;;;;;11.03;57.81;99762.88;6156110;23;20021;-67
2023/01/15 03:13:54;;;;;;;6.70;1.63;;;;;;;11.01;57.50;99765.69;6155974;23;20033;-66
2023/01/15 03:16:36;;;;;;;7.38;1.70;;;;;;;11.02;57.81;99766.53;6182589;23;20466;-66
2023/01/15 03:19:30;;;;;;;9.77;2.40;;;;;;;11.00;57.53;99763.13;6182333;23;20013;-66
2023/01/15 03:22:11;;;;;;;6.20;1.83;;;;;;;11.00;57.68;99768.50;6155805;23;20013;-66
2023/01/15 03:24:46;;;;;;;7.82;1.80;;;;;;;10.97;57.60;99761.56;6182700;22;20017;-66
2023/01/15 03:27:15;;;;;;;9.27;2.17;;;;;;;10.95;57.29;99763.56;6155973;23;20017;-66
2023/01/15 03:29:50;;;;;;;10.02;1.58;;;;;;;10.94;57.42;99764.53;6156140;23;20017;-66
2023/01/15 03:32:19;;;;;;;8.65;2.33;;;;;;;10.93;57.67;99748.56;6182286;23;20049;-67
2023/01/15 03:34:52;;;;;;;6.75;1.65;;;;;;;10.92;57.19;99750.41;6182378;23;20096;-65
2023/01/15 03:37:22;;;;;;;6.68;1.88;;;;;;;10.91;57.67;99747.84;6155619;22;20017;-67
2023/01/15 03:39:51;;;;;;;6.80;2.60;;;;;;;10.91;57.59;99742.47;6155895;23;20403;-67
2023/01/15 03:43:39;;;;;;;4.97;2.10;;;;;;;10.89;57.33;99736.38;6155945;23;20017;-67
2023/01/15 03:45:42;;;;;;;6.80;2.03;;;;;;;10.90;57.66;99746.16;6155698;23;20013;-67
2023/01/15 03:48:12;;;;;;;6.40;1.60;;;;;;;10.88;57.49;99742.75;6131726;23;20018;-66
2023/01/15 03:50:51;;;;;;;10.45;2.53;;;;;;;10.86;57.32;99747.41;6182220;23;20021;-67
2023/01/15 03:53:22;;;;;;;7.85;2.15;;;;;;;10.86;57.49;99747.41;6155776;23;20348;-67
2023/01/15 03:56:05;;;;;;;10.68;2.53;;;;;;;10.87;57.36;99758.03;6155812;23;20021;-66
2023/01/15 03:58:43;;;;;;;6.20;1.60;;;;;;;10.88;57.38;99758.88;6156113;23;20030;-67
2023/01/15 04:01:18;;;;;;;7.30;2.67;;;;;;;10.86;57.21;99755.47;6131947;23;20021;-67
2023/01/15 04:03:47;;;;;;;9.95;1.98;;;;;;;10.83;57.13;99748.53;6156587;23;20028;-67
2023/01/15 04:06:16;;;;;;;8.93;2.13;;;;;;;10.82;57.40;99752.22;6155901;23;20013;-67
2023/01/15 04:08:45;;;;;;;8.07;1.73;;;;;;;10.77;57.18;99757.13;6182546;23;20092;-66
2023/01/15 04:11:12;;;;;;;8.40;1.90;;;;;;;10.75;57.30;99759.13;6155905;23;20066;-67
2023/01/15 04:13:44;;;;;;;7.13;1.90;;;;;;;10.75;57.25;99759.13;6181329;23;20024;-67
2023/01/15 04:16:26;;;;;;;8.15;2.03;;;;;;;10.76;57.16;99747.38;6155702;22;20021;-66
2023/01/15 04:18:54;;;;;;;7.45;1.95;;;;;;;10.75;57.45;99743.00;6155917;22;20497;-67
2023/01/15 04:21:21;;;;;;;8.00;1.95;;;;;;;10.74;57.23;99747.53;6155536;23;20029;-66
2023/01/15 04:23:49;;;;;;;6.50;1.80;;;;;;;10.73;57.28;99751.19;6181873;23;20385;-66
2023/01/15 04:26:16;;;;;;;7.18;1.52;;;;;;;10.73;57.13;99751.19;6182760;23;20339;-67
2023/01/15 04:28:42;;;;;;;10.77;2.10;;;;;;;10.72;57.18;99748.66;6182490;23;20022;-66
2023/01/15 04:31:09;;;;;;;6.97;2.30;;;;;;;10.70;56.94;99756.84;6182077;23;20017;-66
2023/01/15 04:33:37;;;;;;;5.38;2.05;;;;;;;10.71;56.83;99755.00;6182108;23;20063;-67
2023/01/15 04:36:06;;;;;;;9.50;2.33;;;;;;;10.70;56.83;99746.09;6155563;23;20023;-66
2023/01/15 04:38:32;;;;;;;9.98;1.90;;;;;;;10.68;56.82;99741.84;6182404;22;20017;-66
2023/01/15 04:46:33;;;;;;;6.45;2.17;;;;;;;10.60;56.76;99750.59;6182348;23;20014;-65
2023/01/15 04:49:01;;;;;;;5.45;1.70;;;;;;;10.59;56.67;99748.88;6182387;23;20013;-66
2023/01/15 04:51:27;;;;;;;9.32;2.33;;;;;;;10.58;56.68;99752.56;6182016;23;20021;-66
2023/01/15 04:53:54;;;;;;;11.05;2.00;;;;;;;10.56;56.86;99762.59;6182121;23;20025;-65
2023/01/15 04:56:20;;;;;;;5.05;1.85;;;;;;;10.55;56.96;99763.56;6181722;23;20022;-65
2023/01/15 04:58:47;;;;;;;6.78;1.92;;;;;;;10.55;56.94;99760.03;6181888;23;20088;-66
2023/01/15 05:01:16;;;;;;;7.18;1.77;;;;;;;10.54;57.02;99763.72;6181900;22;20033;-66
2023/01/15 05:03:42;;;;;;;6.50;2.17;;;;;;;10.54;56.80;99774.44;6181390;23;20013;-66
2023/01/15 05:06:09;;;;;;;12.38;2.30;;;;;;;10.54;56.85;99763.72;6181546;23;20368;-66
2023/01/15 05:08:36;;;;;;;6.75;2.15;;;;;;;10.54;57.00;99763.72;6181886;23;20017;-65
2023/01/15 05:11:04;;;;;;;6.95;1.95;;;;;;;10.56;56.69;99769.78;6181665;23;20070;-66
2023/01/15 05:13:32;;;;;;;9.10;2.78;;;;;;;10.57;56.67;99766.97;6181534;23;20451;-66
2023/01/15 05:16:17;;;;;;;9.32;2.20;;;;;;;10.55;56.59;99768.94;6182103;22;20028;-66
2023/01/15 05:18:45;;;;;;;5.90;1.80;;;;;;;10.54;56.71;99766.38;6181785;23;20091;-66
2023/01/15 05:21:17;;;;;;;9.20;2.00;;;;;;;10.52;56.67;99763.84;6181678;23;20021;-65
2023/01/15 05:23:44;;;;;;;11.50;2.10;;;;;;;10.50;56.54;99760.44;6181683;23;20013;-66
2023/01/15 05:26:10;;;;;;;11.10;1.73;;;;;;;10.48;56.73;99767.78;6182070;23;20016;-66
2023/01/15 05:28:37;;;;;;;7.28;1.95;;;;;;;10.49;56.85;99758.75;6182218;23;20096;-66
2023/01/15 05:31:06;;;;;;;8.23;1.88;;;;;;;10.51;56.91;99759.47;6181750;23;20092;-67
2023/01/15 05:33:33;;;;;;;12.48;2.55;;;;;;;10.50;56.62;99749.69;6181662;23;20017;-67
2023/01/15 05:36:04;;;;;;;12.43;2.00;;;;;;;10.51;56.79;99754.09;6181756;23;20017;-66
2023/01/15 05:38:31;;;;;;;10.30;2.03;;;;;;;10.52;56.72;99763.00;6182546;23;20454;-66
2023/01/15 05:40:58;;;;;;;11.85;2.15;;;;;;;10.52;56.83;99754.94;6181734;23;20013;-65
2023/01/15 05:43:24;;;;;;;9.45;2.38;;;;;;;10.50;56.57;99755.06;6181636;23;20043;-65
2023/01/15 05:45:51;;;;;;;6.03;2.35;;;;;;;10.49;56.94;99754.22;6181401;23;20339;-66
2023/01/15 05:48:18;;;;;;;5.93;2.03;;;;;;;10.49;56.44;99745.31;6181770;23;20024;-65
2023/01/15 05:50:44;;;;;;;14.60;2.10;;;;;;;10.48;56.67;99754.34;6181791;23;20088;-66
2023/01/15 05:53:11;;;;;;;8.48;1.85;;;;;;;10.48;56.83;99746.31;6181805;23;20013;-65
2023/01/15 05:55:37;;;;;;;11.25;2.25;;;;;;;10.46;56.70;99748.28;6181555;23;20017;-66
2023/01/15 05:58:04;;;;;;;8.25;1.88;;;;;;;10.47;56.73;99739.25;6181914;23;20024;-66
2023/01/15 06:00:30;;;;;;;12.43;2.55;;;;;;;10.45;56.49;99746.56;6155220;23;20448;-66
2023/01/15 06:02:57;;;;;;;8.98;2.20;;;;;;;10.44;56.50;99761.84;6181307;23;20021;-66
2023/01/15 06:05:23;;;;;;;6.93;2.13;;;;;;;10.44;56.45;99751.09;6181193;23;20389;-66
2023/01/15 06:07:51;;;;;;;6.40;2.15;;;;;;;10.44;56.63;99750.25;6181858;23;20074;-66
2023/01/15 06:10:18;;;;;;;11.10;1.90;;;;;;;10.45;56.41;99741.22;6181763;23;20017;-66
2023/01/15 06:12:44;;;;;;;11.60;2.35;;;;;;;10.45;56.40;99744.75;6181002;23;20140;-66
2023/01/15 06:15:11;;;;;;;8.48;2.45;;;;;;;10.45;56.34;99752.78;6181703;23;20374;-67
2023/01/15 06:17:38;;;;;;;9.18;2.10;;;;;;;10.45;56.57;99743.88;6181639;23;20387;-67
2023/01/15 06:20:05;;;;;;;7.93;2.08;;;;;;;10.44;56.54;99750.25;6181532;23;20367;-66
2023/01/15 06:22:31;;;;;;;7.65;2.03;;;;;;;10.42;56.38;99761.13;6181213;23;20439;-66
2023/01/15 06:24:58;;;;;;;11.18;2.20;;;;;;;10.41;56.37;99767.47;6181321;23;20024;-66
2023/01/15 06:27:24;;;;;;;10.13;2.60;;;;;;;10.41;56.36;99769.31;6181217;23;20017;-66
2023/01/15 06:29:52;;;;;;;9.43;2.30;;;;;;;10.40;56.56;99767.56;6181631;23;20023;-67
2023/01/15 06:32:19;;;;;;;9.15;2.25;;;;;;;10.41;56.66;99766.63;6181219;23;20339;-66
2023/01/15 06:34:45;;;;;;;9.50;2.40;;;;;;;10.43;57.02;99775.38;6181318;23;20017;-66
2023/01/15 06:37:12;;;;;;;8.00;2.15;;;;;;;10.43;57.03;99772.69;6182374;22;20024;-66
2023/01/15 06:39:39;;;;;;;14.25;2.53;;;;;;;10.44;56.81;99777.94;6156476;23;20092;-67
2023/01/15 06:47:35;;;;;;;8.43;2.35;;;;;;;10.44;56.93;99782.44;6183126;23;20013;-67
2023/01/15 06:50:01;;;;;;;12.20;2.83;;;;;;;10.40;56.83;99781.88;6182446;23;20009;-67
2023/01/15 06:52:28;;;;;;;8.00;2.45;;;;;;;10.40;57.06;99781.00;6182435;23;20020;-67
2023/01/15 06:54:55;;;;;;;8.30;2.20;;;;;;;10.39;56.90;99780.13;6182317;23;20104;-66
2023/01/15 06:57:22;;;;;;;5.95;2.28;;;;;;;10.40;56.86;99772.94;6182457;23;20339;-66
2023/01/15 06:59:49;;;;;;;6.35;2.15;;;;;;;10.42;57.01;99779.06;6182200;23;20523;-66
2023/01/15 07:02:16;;;;;;;10.45;2.35;;;;;;;10.40;57.20;99772.94;6181987;23;20082;-66
2023/01/15 07:04:44;;;;;;;7.75;2.10;;;;;;;10.38;56.89;99780.28;6182278;23;20084;-65
2023/01/15 07:07:10;;;;;;;7.75;2.00;;;;;;;10.35;56.87;99778.72;6182562;23;20021;-67
2023/01/15 07:09:37;;;;;;;11.63;2.38;;;;;;;10.34;56.96;99779.69;6182381;23;20454;-66
2023/01/15 07:12:04;;;;;;;9.30;2.00;;;;;;;10.32;56.63;99788.84;6182119;23;20448;-67
2023/01/15 07:14:31;;;;;;;13.25;2.72;;;;;;;10.29;56.89;99799.84;6182659;23;20014;-65
2023/01/15 07:16:58;;;;;;;9.35;2.00;;;;;;;10.26;56.66;99800.13;6156638;23;20017;-66
2023/01/15 07:19:26;;;;;;;6.80;2.22;;;;;;;10.25;56.89;99809.16;6182320;23;20447;-66
2023/01/15 07:21:52;;;;;;;9.18;1.85;;;;;;;10.23;56.89;99805.75;6182279;22;20020;-65
2023/01/15 07:24:19;;;;;;;8.80;2.40;;;;;;;10.22;56.89;99802.22;6182223;23;20043;-67
2023/01/15 07:26:46;;;;;;;11.60;2.05;;;;;;;10.22;56.68;99801.38;6182096;23;20436;-66
2023/01/15 07:29:12;;;;;;;8.57;2.10;;;;;;;10.21;56.69;99813.09;6182282;23;20063;-66
2023/01/15 07:31:40;;;;;;;9.18;2.05;;;;;;;10.21;56.92;99805.03;6182434;23;20191;-66
2023/01/15 07:34:07;;;;;;;11.05;2.30;;;;;;;10.19;56.81;99802.44;6182242;22;20013;-66
2023/01/15 07:36:34;;;;;;;8.27;1.77;;;;;;;10.19;56.64;99808.66;6182279;23;20013;-66
2023/01/15 07:39:03;;;;;;;6.38;2.17;;;;;;;10.18;56.83;99823.06;6182435;23;20024;-67
2023/01/15 07:49:47;;;;;;;8.00;1.90;;;;;;;10.13;56.60;99816.41;6182756;23;20475;-65
2023/01/15 07:52:19;;;;;;;7.88;2.08;;;;;;;10.11;56.87;99818.34;6182014;23;20028;-66
2023/01/15 07:54:46;;;;;;;7.32;2.33;;;;;;;10.11;56.49;99813.00;6182348;23;20017;-66
2023/01/15 07:57:16;;;;;;;8.50;2.15;;;;;;;10.09;56.83;99815.81;6182058;23;20009;-65
2023/01/15 07:59:43;;;;;;;7.63;1.98;;;;;;;10.10;56.74;99814.81;6182635;23;20466;-66
2023/01/15 08:02:10;;;;;;;11.32;2.33;;;;;;;10.11;56.77;99816.53;6181906;22;20183;-66
2023/01/15 08:04:37;;;;;;;7.68;1.90;;;;;;;10.12;56.57;99815.53;6182153;23;20317;-66
2023/01/15 08:07:05;;;;;;;9.95;2.15;;;;;;;10.12;56.49;99820.06;6182324;23;20328;-66
2023/01/15 08:09:31;;;;;;;8.43;1.88;;;;;;;10.13;56.55;99811.03;6182492;23;20043;-67
2023/01/15 08:17:33;;;;;;;7.15;1.70;;;;;;;10.10;56.59;99822.88;6182282;23;20020;-70
2023/01/15 08:20:01;;;;;;;6.85;1.75;;;;;;;10.09;56.22;99828.38;6182299;23;20017;-65
2023/01/15 08:22:28;;;;;;;9.85;2.10;;;;;;;10.08;56.46;99835.56;6182195;23;20346;-66
2023/01/15 08:24:54;;;;;;;9.10;2.53;;;;;;;10.06;56.15;99829.47;6182742;23;20428;-67
2023/01/15 08:27:21;;;;;;;7.03;1.67;;;;;;;10.05;56.04;99830.47;6181885;23;20095;-66
2023/01/15 08:29:48;;;;;;;7.45;2.20;;;;;;;10.04;56.16;99828.75;6180752;22;20454;-66
2023/01/15 08:32:14;;;;;;;8.65;2.15;;;;;;;10.03;56.20;99837.78;6182097;23;20103;-66
2023/01/15 08:34:41;;;;;;;5.88;2.05;;;;;;;10.02;56.20;99830.72;6181465;23;20017;-66
2023/01/15 08:37:07;;;;;;;6.13;2.10;;;;;;;10.04;56.01;99828.75;6181851;22;20447;-66
2023/01/15 08:39:34;;;;;;;8.75;2.38;;;;;;;10.09;56.26;99828.38;6181643;23;20074;-66
2023/01/15 08:42:00;;;;;;;7.72;1.95;;;;;;;10.14;56.13;99829.69;6180775;23;20021;-67
2023/01/15 08:44:27;;;;;;;6.18;1.75;;;;;;;10.24;56.09;99837.81;6155878;23;20014;-66
2023/01/15 08:46:54;;;;;;;8.32;1.75;;;;;;;10.32;56.26;99823.75;6181615;23;20099;-67
2023/01/15 08:49:20;;;;;;;3.85;1.55;;;;;;;10.41;56.15;99813.09;6181700;23;20078;-67
2023/01/15 08:51:50;;;;;;;6.72;1.60;;;;;;;10.49;56.07;99817.78;6181601;23;20027;-66
2023/01/15 08:54:19;;;;;;;4.65;1.48;;;;;;;10.59;55.95;99818.69;6181833;23;20013;-67
2023/01/15 08:56:46;;;;;;;6.93;1.40;;;;;;;10.68;55.70;99823.25;6181305;23;20407;-66
2023/01/15 08:59:13;;;;;;;6.00;1.45;;;;;;;10.75;55.81;99824.41;6181450;23;20028;-66
2023/01/15 09:01:40;;;;;;;5.70;1.65;;;;;;;10.84;55.56;99817.38;6154589;22;20422;-66
2023/01/15 09:04:12;;;;;;;6.47;1.67;;;;;;;10.94;55.26;99806.66;6181697;22;20041;-68
2023/01/15 09:06:41;;;;;;;5.75;1.52;;;;;;;11.01;55.43;99821.25;6181407;22;20020;-67
2023/01/15 09:09:11;;;;;;;5.90;1.75;;;;;;;11.07;55.34;99816.19;6181925;23;20017;-66
2023/01/15 09:11:40;;;;;;;9.60;2.08;;;;;;;11.16;55.06;99819.06;6181737;22;20021;-67
2023/01/15 09:14:08;;;;;;;8.43;1.55;;;;;;;11.21;55.09;99820.34;6181743;23;20017;-67
2023/01/15 09:16:54;;;;;;;7.95;1.92;;;;;;;11.26;54.79;99817.25;6181717;23;20017;-66
2023/01/15 09:19:21;;;;;;;5.22;1.40;;;;;;;11.31;54.65;99799.72;6181463;23;20017;-66
2023/01/15 09:21:48;;;;;;;5.10;1.48;;;;;;;11.36;54.76;99807.38;6178877;22;20021;-68
2023/01/15 09:24:14;;;;;;;5.43;1.40;;;;;;;11.41;54.49;99808.63;6179682;23;20178;-68
2023/01/15 09:26:41;;;;;;;5.00;1.42;;;;;;;11.45;54.41;99812.75;6179746;23;20078;-68
2023/01/15 09:29:09;;;;;;;5.35;1.35;;;;;;;11.52;54.52;99822.94;6181973;23;20452;-66
2023/01/15 09:31:35;;;;;;;5.38;1.52;;;;;;;11.57;54.16;99823.38;6180421;23;20433;-67
2023/01/15 09:34:02;;;;;;;4.97;1.40;;;;;;;11.60;54.46;99815.88;6181138;23;20017;-67
2023/01/15 09:36:31;;;;;;;6.38;1.98;;;;;;;11.64;54.22;99827.19;6181210;23;20024;-67
2023/01/15 09:38:59;;;;;;;7.30;1.80;;;;;;;11.64;53.84;99827.19;6180980;23;20021;-66
2023/01/15 09:42:09;;;;;;;5.57;1.63;;;;;;;11.63;53.75;99829.03;6181430;22;20021;-67
2023/01/15 09:45:13;;;;;;;6.63;1.50;;;;;;;11.64;53.88;99819.97;6173600;23;20021;-67
2023/01/15 09:47:53;;;;;;;9.38;1.80;;;;;;;11.63;53.75;99820.97;6181603;22;20013;-68
2023/01/15 09:51:04;;;;;;;6.20;1.70;;;;;;;11.61;53.76;99817.56;6181303;23;20009;-66
2023/01/15 09:53:46;;;;;;;6.43;1.70;;;;;;;11.62;53.70;99815.72;6182689;23;20028;-67
2023/01/15 09:56:21;;;;;;;7.30;2.00;;;;;;;11.59;53.59;99822.25;6155521;23;20091;-67
2023/01/15 09:58:49;;;;;;;9.30;1.85;;;;;;;11.59;53.47;99807.94;6181692;22;20013;-67
2023/01/15 10:01:19;;;;;;;7.68;1.67;;;;;;;11.58;53.56;99814.31;6181613;22;20025;-66
2023/01/15 10:03:56;;;;;;;8.75;2.10;;;;;;;11.55;53.40;99811.91;6181463;23;20013;-67
2023/01/15 10:06:35;;;;;;;8.40;2.15;;;;;;;11.50;53.27;99806.09;6181599;23;20017;-67
2023/01/15 10:09:10;;;;;;;6.03;2.17;;;;;;;11.46;53.55;99816.28;6181588;23;20066;-67
2023/01/15 10:14:38;;;;;;;6.53;1.75;;;;;;;11.46;53.33;99840.47;6181521;23;20017;-67
2023/01/15 10:17:16;;;;;;;9.30;1.75;;;;;;;11.49;53.35;99844.72;6184489;23;20013;-66
2023/01/15 10:19:43;;;;;;;9.10;1.85;;;;;;;11.54;53.44;99842.47;6185033;23;20045;-67
2023/01/15 10:22:39;;;;;;;9.65;2.50;;;;;;;11.59;53.60;99834.84;6180911;23;20474;-67
2023/01/15 10:25:14;;;;;;;6.07;1.80;;;;;;;11.68;53.46;99834.84;6166050;23;20040;-67
2023/01/15 10:27:44;;;;;;;;;;;;;;;11.77;53.25;99836.72;6181968;23;20099;-68
2023/01/15 10:30:21;;;;;;;8.40;1.73;;;;;;;11.90;53.35;99841.00;6154846;23;19927;-69
2023/01/15 10:32:55;;;;;;;7.25;2.00;;;;;;;11.93;52.98;99827.25;6180585;23;20013;-66
2023/01/15 10:35:45;;;;;;;6.15;2.38;;;;;;;11.97;53.38;99851.06;6181276;23;20040;-67
2023/01/15 10:38:34;;;;;;;6.00;1.60;;;;;;;12.01;53.23;99841.69;6181348;23;20041;-67
2023/01/15 10:41:16;;;;;;;5.97;2.25;;;;;;;12.06;53.23;99844.81;6180848;23;20017;-67
2023/01/15 10:43:55;;;;;;;8.40;2.20;;;;;;;12.06;52.81;99838.59;6180810;23;20448;-67
2023/01/15 10:46:32;;;;;;;8.38;2.00;;;;;;;12.04;52.88;99835.19;6180753;23;20176;-67
2023/01/15 10:49:04;;;;;;;7.65;1.75;;;;;;;12.06;52.68;99834.06;6181420;23;20021;-68
2023/01/15 10:51:52;;;;;;;6.90;2.10;;;;;;;12.10;52.50;99831.91;6181144;23;20044;-67
2023/01/15 10:54:26;;;;;;;7.95;2.10;;;;;;;12.12;52.46;99815.63;6181174;23;20457;-67
2023/01/15 10:57:00;;;;;;;4.82;1.70;;;;;;;12.11;52.52;99846.22;6180308;23;20382;-68
2023/01/15 10:59:49;;;;;;;7.18;1.98;;;;;;;12.12;52.33;99832.63;6181410;23;20403;-67
2023/01/15 11:02:26;;;;;;;6.47;1.70;;;;;;;12.15;52.82;99839.56;6154080;22;20378;-67
2023/01/15 11:04:54;;;;;;;10.27;2.00;;;;;;;12.24;52.59;99839.56;6154835;22;20092;-67
2023/01/15 11:07:34;;;;;;;4.32;1.83;;;;;;;12.32;52.38;99842.38;6180723;22;20443;-68
2023/01/15 11:10:04;;;;;;;9.18;1.70;;;;;;;12.37;52.36;99847.31;6181153;22;20021;-68
2023/01/15 11:21:16;;;;;;;5.45;1.85;;;;;;;12.34;51.99;99850.31;6180919;23;20092;-70
2023/01/15 11:23:43;;;;;;;6.72;1.88;;;;;;;12.34;52.04;99845.75;6182005;23;20020;-69
2023/01/15 11:26:18;;;;;;;10.60;1.92;;;;;;;12.30;51.69;99838.97;6181776;23;20017;-69
2023/01/15 11:28:46;;;;;;;8.45;1.67;;;;;;;12.27;51.56;99844.66;6182206;23;20016;-70
2023/01/15 11:31:14;;;;;;;5.70;1.70;;;;;;;12.23;52.05;99842.38;6182151;22;20115;-69
2023/01/15 11:34:01;;;;;;;7.82;2.22;;;;;;;12.18;51.79;99832.06;6181697;23;20017;-70
2023/01/15 11:36:29;;;;;;;5.00;2.40;;;;;;;12.15;51.67;99837.72;6182200;22;20067;-68
2023/01/15 11:38:56;;;;;;;4.90;1.75;;;;;;;12.09;51.78;99832.91;6181927;23;20095;-69
2023/01/15 11:52:47;;;;;;;6.63;1.92;;;;;;;11.89;51.64;99850.03;6155426;23;20405;-69
2023/01/15 11:55:20;;;;;;;4.97;2.45;;;;;;;11.90;51.73;99843.69;6181722;23;20025;-69
2023/01/15 11:57:48;;;;;;;6.45;1.95;;;;;;;11.88;51.68;99841.13;6182273;22;20431;-68
2023/01/15 12:00:25;;;;;;;6.65;1.40;;;;;;;11.84;51.63;99850.47;6182109;23;20009;-69
2023/01/15 12:02:59;;;;;;;3.17;1.35;;;;;;;11.83;51.71;99853.28;6181255;22;20447;-69
2023/01/15 12:05:34;;;;;;;5.30;1.50;;;;;;;11.78;51.58;99846.50;6181916;22;20070;-68
2023/01/15 12:08:15;;;;;;;5.13;1.60;;;;;;;11.76;51.69;99842.22;6181891;23;20017;-69
2023/01/15 12:11:03;;;;;;;5.45;1.25;;;;;;;11.73;51.73;99843.34;6181948;23;20070;-68
2023/01/15 12:14:30;;;;;;;3.95;1.50;;;;;;;11.69;51.94;99835.69;6181711;22;20024;-69
2023/01/15 12:17:05;;;;;;;5.10;1.48;;;;;;;11.68;51.75;99840.22;6182464;23;20378;-68
2023/01/15 12:19:32;;;;;;;;;;;;;;;11.64;52.06;99859.47;6182477;23;20017;-69
2023/01/15 12:22:17;;;;;;;7.60;1.58;;;;;;;11.59;51.94;99842.91;6181792;23;19923;-71
2023/01/15 12:25:17;;;;;;;4.85;1.50;;;;;;;11.49;52.17;99847.41;6181567;23;20118;-70
2023/01/15 12:27:52;;;;;;;9.38;1.48;;;;;;;11.43;52.43;99844.31;6182225;23;20021;-69
2023/01/15 12:30:31;;;;;;;;;;;;;;;11.39;52.49;99834.81;6182551;23;20344;-69
2023/01/15 12:33:20;;;;;;;5.30;1.38;;;;;;;11.35;52.42;99828.00;6181394;23;20315;-68
2023/01/15 12:35:55;;;;;;;5.03;1.20;;;;;;;11.29;52.73;99833.94;6181774;23;20447;-69
2023/01/15 12:38:41;;;;;;;3.28;1.25;;;;;;;11.24;52.76;99840.72;6181709;23;20017;-69
2023/01/15 12:41:13;;;;;;;4.22;1.63;;;;;;;11.23;52.88;99839.03;6181804;23;20009;-69
2023/01/15 12:46:33;;;;;;;5.97;1.33;;;;;;;11.20;52.83;99832.09;6181692;23;20013;-68
2023/01/15 12:49:30;;;;;;;6.57;1.35;;;;;;;11.18;53.00;99831.38;6181876;23;20024;-68
2023/01/15 12:52:23;;;;;;;2.88;1.10;;;;;;;11.17;53.36;99829.69;6181550;23;20013;-69